Terminal Aerodrome Forecast
Issued by NWS

Home | Current Version | Previous Version | Text Only | Print | Product List | Glossary On
Versions: 1 2 3 4 5 6 7 8 9 10 11 12 13 14 15 16 17 18 19 20
000
FTUS42 KKEY 171120
TAFMTH
TAF
KMTH 171120Z 1712/1812 10011G15KT P6SM FEW028
     FM171800 10009KT P6SM FEW035=

USA.gov is the U.S. government's official web portal to all federal, state and local government web resources and services.